createdAt,value
2018-09-19T00:00:42.313Z,58.71
2018-09-19T00:01:42.427Z,58.55
2018-09-19T00:02:42.356Z,58.97
2018-09-19T00:03:42.336Z,58.62
2018-09-19T00:04:42.301Z,58.65
2018-09-19T00:05:42.887Z,58.38
2018-09-19T00:06:42.284Z,58.63
2018-09-19T00:07:42.368Z,58.4
2018-09-19T00:08:43.229Z,58.55
2018-09-19T00:09:42.294Z,58.47
2018-09-19T00:10:42.313Z,58.4
2018-09-19T00:11:42.275Z,58.44
2018-09-19T00:12:42.269Z,58.76
2018-09-19T00:13:42.413Z,58.95
2018-09-19T00:14:42.482Z,59
2018-09-19T00:15:42.344Z,59.13
2018-09-19T00:16:42.283Z,59.39
2018-09-19T00:17:42.390Z,59.01
2018-09-19T00:18:42.286Z,58.83
2018-09-19T00:19:42.780Z,58.8
2018-09-19T00:20:42.311Z,58.83
2018-09-19T00:21:42.304Z,58.93
2018-09-19T00:22:42.275Z,58.8
2018-09-19T00:23:42.282Z,59.26
2018-09-19T00:24:42.342Z,59.57
2018-09-19T00:25:42.495Z,59.04
2018-09-19T00:26:42.631Z,59.77
2018-09-19T00:27:42.355Z,59.65
2018-09-19T00:28:42.287Z,59.89
2018-09-19T00:29:42.421Z,59.61
2018-09-19T00:30:42.279Z,59.93
2018-09-19T00:31:42.575Z,60.02
2018-09-19T00:32:42.501Z,59.64
2018-09-19T00:33:42.299Z,59.62
2018-09-19T00:34:42.304Z,59.76
2018-09-19T00:35:42.324Z,59.87
2018-09-19T00:36:42.357Z,59.91
2018-09-19T00:37:42.393Z,59.4
2018-09-19T00:38:42.460Z,59.49
2018-09-19T00:39:42.322Z,59.95
2018-09-19T00:40:42.304Z,59.88
2018-09-19T00:41:42.300Z,60.17
2018-09-19T00:42:42.404Z,60.25
2018-09-19T00:43:42.353Z,60.74
2018-09-19T00:44:42.370Z,60.72
2018-09-19T00:45:42.288Z,60.74
2018-09-19T00:46:42.325Z,60.88
2018-09-19T00:47:42.333Z,60.86
2018-09-19T00:48:42.551Z,60.22
2018-09-19T00:49:42.319Z,60.18
2018-09-19T00:50:42.310Z,60.8
2018-09-19T00:51:42.739Z,60.53
2018-09-19T00:52:42.362Z,60.79
2018-09-19T00:53:42.331Z,60.85
2018-09-19T00:54:42.360Z,61
2018-09-19T00:55:42.333Z,61.38
2018-09-19T00:56:42.361Z,60.78
2018-09-19T00:57:42.316Z,60.4
2018-09-19T00:58:42.498Z,60.58
2018-09-19T00:59:42.340Z,60.88
2018-09-19T01:00:42.562Z,61.25
2018-09-19T01:01:42.342Z,60.75
2018-09-19T01:02:42.303Z,61.71
2018-09-19T01:03:42.336Z,61.98
2018-09-19T01:04:42.307Z,61.91
2018-09-19T01:05:42.361Z,62.09
2018-09-19T01:06:42.332Z,62.19
2018-09-19T01:07:42.420Z,62.35
2018-09-19T01:08:42.383Z,62.42
2018-09-19T01:09:42.340Z,62.23
2018-09-19T01:10:42.600Z,62.42
2018-09-19T01:11:42.321Z,62.04
2018-09-19T01:12:42.359Z,61.7
2018-09-19T01:13:42.362Z,61.82
2018-09-19T01:14:42.324Z,62.41
2018-09-19T01:15:42.334Z,62.49
2018-09-19T01:16:42.327Z,62.48
2018-09-19T01:17:42.322Z,62.49
2018-09-19T01:18:42.323Z,62.37
2018-09-19T01:19:42.352Z,62.59
2018-09-19T01:20:42.505Z,62.53
2018-09-19T01:21:42.430Z,62.16
2018-09-19T01:22:42.684Z,61.9
2018-09-19T01:23:42.334Z,62.27
2018-09-19T01:24:42.336Z,62.54
2018-09-19T01:25:42.448Z,62.5
2018-09-19T01:26:42.402Z,61.92
2018-09-19T01:27:42.495Z,62.57
2018-09-19T01:28:42.378Z,62.04
2018-09-19T01:29:42.339Z,62.41
2018-09-19T01:30:42.354Z,61.99
2018-09-19T01:31:42.515Z,63.03
2018-09-19T01:32:42.624Z,62.89
2018-09-19T01:33:42.355Z,62.61
2018-09-19T01:34:42.351Z,62.31
2018-09-19T01:35:42.390Z,62.39
2018-09-19T01:36:42.507Z,63.06
2018-09-19T01:37:42.334Z,62.75
2018-09-19T01:38:42.362Z,62.2
2018-09-19T01:39:42.394Z,62.76
2018-09-19T01:40:42.391Z,62.54
2018-09-19T01:41:42.467Z,62.79
2018-09-19T01:42:42.345Z,62.79
2018-09-19T01:43:42.338Z,62.65
2018-09-19T01:44:42.479Z,62.5
2018-09-19T01:45:42.367Z,62.15
2018-09-19T01:46:42.383Z,62.16
2018-09-19T01:47:42.559Z,62.6
2018-09-19T01:48:43.263Z,62.21
2018-09-19T01:49:42.468Z,62.4
2018-09-19T01:50:42.365Z,62.48
2018-09-19T01:51:42.349Z,62.88
2018-09-19T01:52:42.361Z,62.76
2018-09-19T01:53:42.380Z,62.59
2018-09-19T01:54:42.532Z,62.61
2018-09-19T01:55:42.360Z,62.16
2018-09-19T01:56:42.387Z,62.27
2018-09-19T01:57:42.370Z,62.87
2018-09-19T01:58:42.706Z,63.12
2018-09-19T01:59:42.420Z,62.63
2018-09-19T02:00:42.619Z,62.97
2018-09-19T02:01:42.397Z,62.44
2018-09-19T02:02:42.377Z,62.82
2018-09-19T02:03:42.370Z,62.73
2018-09-19T02:04:42.613Z,62.59
2018-09-19T02:05:42.464Z,62.83
2018-09-19T02:06:42.380Z,62.69
2018-09-19T02:07:42.375Z,62.98
2018-09-19T02:08:42.948Z,63.44
2018-09-19T02:09:43.085Z,63.21
2018-09-19T02:10:42.433Z,63.32
2018-09-19T02:11:42.451Z,62.73
2018-09-19T02:12:42.496Z,62.79
2018-09-19T02:13:42.385Z,62.76
2018-09-19T02:14:42.395Z,63.05
2018-09-19T02:15:42.377Z,63.04
2018-09-19T02:16:42.539Z,62.97
2018-09-19T02:17:42.441Z,63.39
2018-09-19T02:18:42.534Z,63.67
2018-09-19T02:19:42.491Z,63.28
2018-09-19T02:20:42.470Z,63.25
2018-09-19T02:21:42.398Z,63.28
2018-09-19T02:22:42.475Z,63.7
2018-09-19T02:23:42.485Z,63.5
2018-09-19T02:24:42.495Z,63.29
2018-09-19T02:25:42.370Z,63.98
2018-09-19T02:26:42.459Z,64.31
2018-09-19T02:27:42.440Z,63.91
2018-09-19T02:28:42.473Z,64
2018-09-19T02:29:42.349Z,63.42
2018-09-19T02:30:42.403Z,64.4
2018-09-19T02:31:42.386Z,64.21
2018-09-19T02:32:42.426Z,64.46
2018-09-19T02:33:42.400Z,64.03
2018-09-19T02:34:42.401Z,64.14
2018-09-19T02:35:42.433Z,63.91
2018-09-19T02:36:42.439Z,64.79
2018-09-19T02:37:42.408Z,64.58
2018-09-19T02:38:42.392Z,64.54
2018-09-19T02:39:42.440Z,64.25
2018-09-19T02:40:42.430Z,64.83
2018-09-19T02:41:42.407Z,64.09
2018-09-19T02:42:42.409Z,64.3
2018-09-19T02:43:42.420Z,64.28
2018-09-19T02:44:42.581Z,64.37
2018-09-19T02:45:42.421Z,65.59
2018-09-19T02:46:42.405Z,64.85
2018-09-19T02:47:42.744Z,64.76
2018-09-19T02:48:42.485Z,64.74
2018-09-19T02:49:42.506Z,65.6
2018-09-19T02:50:42.421Z,65.29
2018-09-19T02:51:42.474Z,65.44
2018-09-19T02:52:42.510Z,65.59
2018-09-19T02:53:42.545Z,65.75
2018-09-19T02:54:42.497Z,65.58
2018-09-19T02:55:42.452Z,65.18
2018-09-19T02:56:42.458Z,65.84
2018-09-19T02:57:42.469Z,66.12
2018-09-19T02:58:42.572Z,65.85
2018-09-19T02:59:42.484Z,66.23
2018-09-19T03:00:42.430Z,65.93
2018-09-19T03:01:42.422Z,65.24
2018-09-19T03:02:42.504Z,65.24
2018-09-19T03:03:42.403Z,64.93
2018-09-19T03:05:42.531Z,65.27
2018-09-19T03:06:42.426Z,65.27
2018-09-19T03:07:42.615Z,65.47
2018-09-19T03:08:42.489Z,65.58
2018-09-19T03:09:42.590Z,65.96
2018-09-19T03:10:42.559Z,65.85
2018-09-19T03:11:42.596Z,65.46
2018-09-19T03:12:42.400Z,66.36
2018-09-19T03:13:42.527Z,65.73
2018-09-19T03:14:42.531Z,65.47
2018-09-19T03:15:42.436Z,65.68
2018-09-19T03:16:42.606Z,66.13
2018-09-19T03:17:42.653Z,65.76
2018-09-19T03:18:42.406Z,65.98
2018-09-19T03:19:42.469Z,66.07
2018-09-19T03:20:42.446Z,65.63
2018-09-19T03:21:42.642Z,66.25
2018-09-19T03:22:42.426Z,66.42
2018-09-19T03:23:42.477Z,66.65
2018-09-19T03:24:42.432Z,66.06
2018-09-19T03:25:42.447Z,65.89
2018-09-19T03:26:42.567Z,66.16
2018-09-19T03:27:42.667Z,65.97
2018-09-19T03:28:42.452Z,65.6
2018-09-19T03:29:42.624Z,66.95
2018-09-19T03:30:42.489Z,66.38
2018-09-19T03:31:42.655Z,66.35
2018-09-19T03:32:42.433Z,66.07
2018-09-19T03:33:42.664Z,66.31
2018-09-19T03:34:42.424Z,66.32
2018-09-19T03:35:42.414Z,66.2
2018-09-19T03:36:42.750Z,66
2018-09-19T03:37:42.440Z,66.42
2018-09-19T03:38:42.591Z,67.36
2018-09-19T03:39:42.507Z,66.84
2018-09-19T03:40:42.513Z,67.52
2018-09-19T03:41:43.461Z,66.87
2018-09-19T03:42:42.459Z,67.85
2018-09-19T03:43:42.436Z,67.35
2018-09-19T03:44:42.475Z,67.81
2018-09-19T03:45:42.520Z,67.24
2018-09-19T03:46:42.486Z,67.91
2018-09-19T03:47:42.589Z,67.42
2018-09-19T03:48:42.622Z,67.12
2018-09-19T03:49:42.456Z,67.26
2018-09-19T03:50:42.448Z,67.06
2018-09-19T03:51:42.466Z,67.12
2018-09-19T03:52:42.445Z,66.78
2018-09-19T03:53:42.475Z,67.31
2018-09-19T03:54:42.582Z,67.37
2018-09-19T03:55:42.895Z,67.2
2018-09-19T03:56:42.437Z,67.04
2018-09-19T03:57:42.431Z,66.88
2018-09-19T03:58:42.451Z,66.81
2018-09-19T03:59:42.468Z,66.78
2018-09-19T04:00:42.441Z,66.84
2018-09-19T04:01:42.463Z,67.07
2018-09-19T04:02:42.494Z,67.25
2018-09-19T04:03:42.442Z,67.05
2018-09-19T04:04:42.451Z,67.7
2018-09-19T04:05:42.476Z,67.56
2018-09-19T04:06:42.454Z,67.68
2018-09-19T04:07:42.485Z,67.19
2018-09-19T04:08:42.464Z,67.36
2018-09-19T04:09:42.444Z,67.74
2018-09-19T04:10:43.023Z,67.44
2018-09-19T04:11:42.458Z,67.43
2018-09-19T04:12:42.540Z,67.61
2018-09-19T04:13:42.500Z,67.76
2018-09-19T04:14:42.553Z,67.6
2018-09-19T04:15:42.467Z,67.68
2018-09-19T04:16:42.630Z,67.36
2018-09-19T04:17:42.639Z,67.42
2018-09-19T04:18:42.567Z,66.96
2018-09-19T04:19:42.556Z,67.86
2018-09-19T04:20:42.453Z,67.38
2018-09-19T04:21:42.466Z,67.47
2018-09-19T04:22:42.505Z,68.05
2018-09-19T04:23:42.478Z,67.6
2018-09-19T04:24:42.472Z,67.3
2018-09-19T04:25:42.512Z,67.65
2018-09-19T04:26:42.628Z,68.14
2018-09-19T04:27:42.465Z,68.38
2018-09-19T04:28:42.511Z,68.13
2018-09-19T04:29:42.526Z,68.08
2018-09-19T04:30:42.507Z,68.22
2018-09-19T04:31:42.631Z,68.16
2018-09-19T04:32:42.632Z,67.66
2018-09-19T04:33:42.459Z,67.51
2018-09-19T04:34:42.673Z,67.73
2018-09-19T04:35:42.520Z,67.74
2018-09-19T04:36:42.511Z,68.31
2018-09-19T04:37:42.975Z,68.42
2018-09-19T04:38:42.733Z,68.41
2018-09-19T04:39:42.508Z,68.9
2018-09-19T04:40:42.679Z,68.88
2018-09-19T04:41:42.493Z,69.12
2018-09-19T04:42:42.470Z,68.87
2018-09-19T04:43:42.503Z,68.23
2018-09-19T04:44:42.695Z,68.17
2018-09-19T04:45:42.691Z,68.25
2018-09-19T04:46:42.535Z,69.13
2018-09-19T04:47:42.469Z,68.98
2018-09-19T04:48:42.572Z,69.36
2018-09-19T04:49:42.475Z,69.23
2018-09-19T04:50:42.626Z,69.39
2018-09-19T04:51:42.560Z,69.37
2018-09-19T04:52:42.532Z,69.44
2018-09-19T04:53:42.488Z,69.15
2018-09-19T04:54:42.485Z,68.89
2018-09-19T04:55:42.493Z,69.55
2018-09-19T04:56:42.713Z,69.14
2018-09-19T04:57:42.485Z,69.11
2018-09-19T04:58:42.623Z,69.15
2018-09-19T04:59:42.633Z,69.02
2018-09-19T05:00:42.500Z,68.74
2018-09-19T05:01:42.558Z,68.7
2018-09-19T05:02:42.520Z,69.02
2018-09-19T05:03:42.507Z,69.27
2018-09-19T05:04:42.557Z,69.58
2018-09-19T05:05:42.483Z,69.37
2018-09-19T05:06:42.570Z,70.06
2018-09-19T05:07:42.612Z,70
2018-09-19T05:08:42.506Z,70.03
2018-09-19T05:09:42.637Z,70.15
2018-09-19T05:10:42.933Z,70.45
2018-09-19T05:11:42.521Z,70.71
2018-09-19T05:12:42.529Z,71.39
2018-09-19T05:13:42.525Z,71.44
2018-09-19T05:14:42.525Z,71.19
2018-09-19T05:15:42.486Z,71.84
2018-09-19T05:16:42.604Z,72.66
2018-09-19T05:17:44.806Z,72.64
2018-09-19T05:18:42.524Z,72.55
2018-09-19T05:19:42.523Z,72.38
2018-09-19T05:20:42.526Z,72.27
2018-09-19T05:21:42.531Z,72.28
2018-09-19T05:22:42.535Z,72.43
2018-09-19T05:23:42.504Z,72.12
2018-09-19T05:24:42.514Z,72.28
2018-09-19T05:25:42.520Z,72.38
2018-09-19T05:26:42.565Z,72.46
2018-09-19T05:27:42.510Z,72.34
2018-09-19T05:28:42.552Z,72.64
2018-09-19T05:29:42.543Z,72.07
2018-09-19T05:30:42.964Z,72.58
2018-09-19T05:31:42.691Z,73.99
2018-09-19T05:32:42.541Z,73.01
2018-09-19T05:33:42.519Z,72.86
2018-09-19T05:34:42.515Z,72.85
2018-09-19T05:35:42.598Z,73.32
2018-09-19T05:36:42.527Z,73.48
2018-09-19T05:37:42.539Z,73.28
2018-09-19T05:38:42.591Z,72.75
2018-09-19T05:39:42.537Z,72.72
2018-09-19T05:40:42.681Z,72.42
2018-09-19T05:41:42.663Z,72.72
2018-09-19T05:42:42.691Z,73.18
2018-09-19T05:43:42.587Z,72.08
2018-09-19T05:44:42.839Z,72.39
2018-09-19T05:45:42.702Z,72.03
2018-09-19T05:46:42.554Z,72.1
2018-09-19T05:47:42.681Z,72.07
2018-09-19T05:48:42.637Z,71.62
2018-09-19T05:49:42.521Z,71.59
2018-09-19T05:50:42.632Z,71.99
2018-09-19T05:51:42.601Z,72.18
2018-09-19T05:52:42.575Z,71.79
2018-09-19T05:53:42.545Z,71.77
2018-09-19T05:54:42.538Z,72.28
2018-09-19T05:55:42.707Z,72.28
2018-09-19T05:56:42.627Z,72.82
2018-09-19T05:57:42.714Z,73.03
2018-09-19T05:58:42.648Z,73.08
2018-09-19T05:59:42.842Z,72.73
2018-09-19T06:00:42.532Z,72.21
2018-09-19T06:01:42.824Z,72.46
2018-09-19T06:02:42.540Z,71.74
2018-09-19T06:03:42.524Z,72.81
2018-09-19T06:04:42.751Z,72.32
2018-09-19T06:05:42.544Z,72.46
2018-09-19T06:06:42.648Z,72.94
2018-09-19T06:07:42.525Z,72.67
2018-09-19T06:08:42.540Z,72.09
2018-09-19T06:09:42.792Z,72.46
2018-09-19T06:10:42.519Z,72.1
2018-09-19T06:11:42.580Z,71.52
2018-09-19T06:12:42.813Z,72.17
2018-09-19T06:13:42.746Z,72.38
2018-09-19T06:14:42.571Z,71.76
2018-09-19T06:15:42.541Z,71.76
2018-09-19T06:16:42.655Z,72.24
2018-09-19T06:17:42.649Z,71.71
2018-09-19T06:18:42.987Z,71.74
2018-09-19T06:19:42.550Z,71.2
2018-09-19T06:20:42.572Z,71.73
2018-09-19T06:21:42.570Z,71.44
2018-09-19T06:22:42.570Z,71.09
2018-09-19T06:23:42.721Z,70.92
2018-09-19T06:24:42.577Z,71.02
2018-09-19T06:25:42.693Z,70.83
2018-09-19T06:26:43.018Z,71.74
2018-09-19T06:27:42.608Z,71.29
2018-09-19T06:28:42.752Z,71.91
2018-09-19T06:29:42.951Z,71.26
2018-09-19T06:30:42.577Z,71.5
2018-09-19T06:31:42.651Z,71.72
2018-09-19T06:32:42.768Z,71.52
2018-09-19T06:33:42.560Z,70.78
2018-09-19T06:34:42.569Z,70.4
2018-09-19T06:35:42.570Z,70.57
2018-09-19T06:36:42.990Z,70.47
2018-09-19T06:37:42.589Z,70.5
2018-09-19T06:38:42.753Z,70.18
2018-09-19T06:39:42.565Z,70.21
2018-09-19T06:40:43.022Z,70.5
2018-09-19T06:41:42.571Z,70.75
2018-09-19T06:42:42.571Z,70.94
2018-09-19T06:43:42.748Z,70.91
2018-09-19T06:44:42.567Z,70.56
2018-09-19T06:45:42.646Z,70.67
2018-09-19T06:46:42.624Z,70.22
2018-09-19T06:47:42.557Z,70.35
2018-09-19T06:48:42.573Z,70.1
2018-09-19T06:49:42.565Z,70.34
2018-09-19T06:50:42.577Z,70.64
2018-09-19T06:51:42.602Z,70.4
2018-09-19T06:52:42.564Z,70.19
2018-09-19T06:53:42.628Z,70.32
2018-09-19T06:54:42.638Z,70.38
2018-09-19T06:55:42.608Z,70.35
2018-09-19T06:56:42.689Z,70.3
2018-09-19T06:57:43.544Z,70.25
2018-09-19T06:58:42.713Z,69.98
2018-09-19T06:59:42.710Z,69.91
2018-09-19T07:00:42.690Z,70.21
2018-09-19T07:01:42.657Z,70.15
2018-09-19T07:02:42.705Z,69.7
2018-09-19T07:03:42.720Z,69.55
2018-09-19T07:04:42.811Z,69.54
2018-09-19T07:05:42.627Z,69.27
2018-09-19T07:06:42.564Z,69.21
2018-09-19T07:07:42.621Z,69.57
2018-09-19T07:08:42.657Z,69.43
2018-09-19T07:09:42.576Z,69.47
2018-09-19T07:10:43.260Z,69.29
2018-09-19T07:11:42.926Z,69.4
2018-09-19T07:12:42.719Z,68.95
2018-09-19T07:13:42.603Z,68.84
2018-09-19T07:14:42.795Z,68.81
2018-09-19T07:15:42.929Z,68.75
2018-09-19T07:16:42.628Z,68.8
2018-09-19T07:17:42.592Z,68.63
2018-09-19T07:18:42.676Z,68.29
2018-09-19T07:19:42.666Z,68.68
2018-09-19T07:20:42.992Z,68.36
2018-09-19T07:21:42.736Z,68.02
2018-09-19T07:22:42.686Z,68.27
2018-09-19T07:23:42.780Z,68.31
2018-09-19T07:24:42.585Z,68.13
2018-09-19T07:25:42.662Z,68.17
2018-09-19T07:26:42.603Z,67.96
2018-09-19T07:27:42.749Z,67.73
2018-09-19T07:28:42.715Z,67.88
2018-09-19T07:29:42.743Z,67.32
2018-09-19T07:30:42.760Z,67.47
2018-09-19T07:31:42.605Z,67.61
2018-09-19T07:32:42.795Z,67.12
2018-09-19T07:33:42.582Z,66.83
2018-09-19T07:34:42.649Z,66.91
2018-09-19T07:35:42.610Z,66.6
2018-09-19T07:36:43.010Z,66.34
2018-09-19T07:37:42.605Z,66.52
2018-09-19T07:38:42.716Z,66.68
2018-09-19T07:39:42.596Z,66.56
2018-09-19T07:40:42.747Z,66.15
2018-09-19T07:41:42.664Z,66.31
2018-09-19T07:42:42.598Z,65.94
2018-09-19T07:43:42.740Z,65.79
2018-09-19T07:44:42.597Z,65.87
2018-09-19T07:45:42.638Z,65.31
2018-09-19T07:46:43.647Z,65.13
2018-09-19T07:47:42.590Z,65.36
2018-09-19T07:48:42.689Z,65.49
2018-09-19T07:49:42.595Z,65.36
2018-09-19T07:50:43.501Z,65.58
2018-09-19T07:51:42.639Z,65.41
2018-09-19T07:52:42.626Z,65.31
2018-09-19T07:53:42.694Z,65.11
2018-09-19T07:54:42.722Z,65.03
2018-09-19T07:55:42.608Z,64.47
2018-09-19T07:56:42.666Z,64.51
2018-09-19T07:57:42.678Z,64.58
2018-09-19T07:58:42.607Z,64.26
2018-09-19T07:59:42.603Z,64.04
2018-09-19T08:00:42.795Z,63.88
2018-09-19T08:01:42.624Z,64.37
2018-09-19T08:02:42.615Z,64.14
2018-09-19T08:03:43.166Z,63.97
2018-09-19T08:04:42.602Z,63.99
2018-09-19T08:05:42.979Z,63.83
2018-09-19T08:06:42.710Z,63.76
2018-09-19T08:07:42.649Z,63.79
2018-09-19T08:08:42.667Z,63.73
2018-09-19T08:09:42.711Z,63.38
2018-09-19T08:10:42.736Z,63.44
2018-09-19T08:11:42.620Z,63.4
2018-09-19T08:12:42.605Z,63.58
2018-09-19T08:13:42.856Z,63.18
2018-09-19T08:14:42.740Z,63.56
2018-09-19T08:15:42.631Z,63.2
2018-09-19T08:16:42.683Z,62.96
2018-09-19T08:17:42.611Z,62.74
2018-09-19T08:18:42.616Z,62.87
2018-09-19T08:19:42.630Z,62.4
2018-09-19T08:20:42.624Z,62.54
2018-09-19T08:21:42.899Z,62.93
2018-09-19T08:22:42.630Z,62.66
2018-09-19T08:23:42.697Z,62.33
2018-09-19T08:24:42.614Z,62.14
2018-09-19T08:25:42.637Z,62.17
2018-09-19T08:26:42.618Z,62.02
2018-09-19T08:27:42.631Z,61.7
2018-09-19T08:28:42.704Z,61.63
2018-09-19T08:29:42.637Z,61.87
2018-09-19T08:30:42.624Z,61.51
2018-09-19T08:31:42.650Z,61.87
2018-09-19T08:32:42.654Z,61.9
2018-09-19T08:33:42.630Z,61.88
2018-09-19T08:34:42.613Z,61.99
2018-09-19T08:35:42.677Z,61.35
2018-09-19T08:36:42.647Z,61.28
2018-09-19T08:37:42.621Z,61.22
2018-09-19T08:38:42.611Z,61.2
2018-09-19T08:39:42.613Z,61.03
2018-09-19T08:40:43.566Z,60.54
2018-09-19T08:41:42.624Z,60.04
2018-09-19T08:42:43.021Z,60.32
2018-09-19T08:43:42.658Z,59.97
2018-09-19T08:44:42.934Z,60.09
2018-09-19T08:45:43.106Z,59.87
2018-09-19T08:46:42.685Z,59.85
2018-09-19T08:47:42.654Z,59.79
2018-09-19T08:48:42.726Z,59.76
2018-09-19T08:49:42.979Z,59.85
2018-09-19T08:50:43.149Z,60.38
2018-09-19T08:51:42.688Z,60.31
2018-09-19T08:52:42.640Z,59.96
2018-09-19T08:53:42.639Z,59.19
2018-09-19T08:54:42.678Z,59.36
2018-09-19T08:55:42.736Z,59.16
2018-09-19T08:56:42.718Z,59.04
2018-09-19T08:57:42.794Z,59.03
2018-09-19T08:58:42.886Z,59.29
2018-09-19T08:59:42.707Z,59.49
2018-09-19T09:00:42.784Z,58.49
2018-09-19T09:01:42.692Z,58.83
2018-09-19T09:02:42.971Z,58.81
2018-09-19T09:03:42.665Z,59.06
2018-09-19T09:04:43.081Z,58.79
2018-09-19T09:05:43.233Z,58.36
2018-09-19T09:06:42.655Z,58.67
2018-09-19T09:07:42.653Z,58.13
2018-09-19T09:08:42.869Z,58.41
2018-09-19T09:09:42.669Z,58.68
2018-09-19T09:10:42.990Z,58.39
2018-09-19T09:11:42.653Z,58.54
2018-09-19T09:12:42.720Z,58.23
2018-09-19T09:13:42.650Z,58.66
2018-09-19T09:14:42.671Z,58.6
2018-09-19T09:15:43.065Z,58.42
2018-09-19T09:16:42.830Z,57.92
2018-09-19T09:17:42.755Z,57.64
2018-09-19T09:18:43.080Z,57.69
2018-09-19T09:19:42.778Z,57.56
2018-09-19T09:20:42.724Z,57.11
2018-09-19T09:21:42.668Z,57.43
2018-09-19T09:22:42.663Z,57.18
2018-09-19T09:23:42.742Z,57.35
2018-09-19T09:24:43.018Z,56.75
2018-09-19T09:25:42.749Z,56.93
2018-09-19T09:26:42.800Z,56.52
2018-09-19T09:27:42.662Z,56.37
2018-09-19T09:28:42.671Z,56.32
2018-09-19T09:29:42.783Z,56.42
2018-09-19T09:30:42.650Z,56.35
2018-09-19T09:31:42.662Z,55.64
2018-09-19T09:32:42.649Z,55.42
2018-09-19T09:33:42.689Z,55.62
2018-09-19T09:34:42.672Z,56.38
2018-09-19T09:35:42.989Z,56.43
2018-09-19T09:36:42.689Z,56.3
2018-09-19T09:37:42.653Z,55.45
2018-09-19T09:38:42.682Z,55.89
2018-09-19T09:39:42.663Z,55.56
2018-09-19T09:40:42.704Z,55.21
2018-09-19T09:41:42.668Z,54.91
2018-09-19T09:42:42.942Z,54.74
2018-09-19T09:43:42.741Z,54.73
2018-09-19T09:44:42.732Z,54.42
2018-09-19T09:45:42.690Z,53.94
2018-09-19T09:46:42.691Z,54.2
2018-09-19T09:47:42.707Z,53.73
2018-09-19T09:48:43.084Z,53.67
2018-09-19T09:49:42.880Z,53.47
2018-09-19T09:50:42.657Z,53.45
2018-09-19T09:51:42.673Z,53.88
2018-09-19T09:52:42.689Z,53.84
2018-09-19T09:53:42.679Z,53.68
2018-09-19T09:54:42.684Z,53.7
2018-09-19T09:55:42.707Z,53.61
2018-09-19T09:56:42.673Z,53.53
2018-09-19T09:57:42.724Z,53.36
2018-09-19T09:58:42.688Z,52.93
2018-09-19T09:59:42.697Z,52.91
2018-09-19T10:00:42.730Z,52.98
2018-09-19T10:01:43.128Z,53.03
2018-09-19T10:02:42.705Z,52.97
2018-09-19T10:03:42.745Z,52.43
2018-09-19T10:04:42.678Z,52.52
2018-09-19T10:05:43.090Z,51.83
2018-09-19T10:06:42.903Z,52.14
2018-09-19T10:07:42.938Z,51.95
2018-09-19T10:08:43.018Z,51.69
2018-09-19T10:09:42.680Z,51.27
2018-09-19T10:10:42.723Z,50.69
2018-09-19T10:11:42.729Z,51.5
2018-09-19T10:12:43.555Z,50.65
2018-09-19T10:13:42.786Z,50.94
2018-09-19T10:14:42.691Z,50.75
2018-09-19T10:15:42.724Z,50.86
2018-09-19T10:16:42.738Z,50.19
2018-09-19T10:17:42.788Z,49.75
2018-09-19T10:18:42.752Z,50.47
2018-09-19T10:19:42.727Z,50.49
2018-09-19T10:20:42.713Z,50.89
2018-09-19T10:21:43.256Z,50.78
2018-09-19T10:22:42.747Z,50.12
2018-09-19T10:23:42.739Z,49.9
2018-09-19T10:24:42.736Z,49.83
2018-09-19T10:25:43.130Z,50
2018-09-19T10:26:42.722Z,50.03
2018-09-19T10:27:42.723Z,49.58
2018-09-19T10:28:42.738Z,49.17
2018-09-19T10:29:42.841Z,49.53
2018-09-19T10:30:42.960Z,49.83
2018-09-19T10:31:42.705Z,49.72
2018-09-19T10:32:42.718Z,49.73
2018-09-19T10:33:42.908Z,49.68
2018-09-19T10:34:43.001Z,49.27
2018-09-19T10:35:42.736Z,49.33
2018-09-19T10:36:43.017Z,48.83
2018-09-19T10:37:42.983Z,48.5
2018-09-19T10:38:42.836Z,48.35
2018-09-19T10:39:42.794Z,48.74
2018-09-19T10:40:42.955Z,48.87
2018-09-19T10:41:42.790Z,48.89
2018-09-19T10:42:43.137Z,48.42
2018-09-19T10:43:42.733Z,48.87
2018-09-19T10:44:42.749Z,48.82
2018-09-19T10:45:42.763Z,48.91
2018-09-19T10:46:42.954Z,49.35
2018-09-19T10:47:43.003Z,49.21
2018-09-19T10:48:42.765Z,48.68
2018-09-19T10:49:43.195Z,48.39
2018-09-19T10:50:42.937Z,47.97
2018-09-19T10:51:42.919Z,47.69
2018-09-19T10:52:42.846Z,47.78
2018-09-19T10:53:43.084Z,47.79
2018-09-19T10:54:42.767Z,47.69
2018-09-19T10:55:42.820Z,46.79
2018-09-19T10:56:42.830Z,46.34
2018-09-19T10:57:42.933Z,46.77
2018-09-19T10:58:42.797Z,46.45
2018-09-19T10:59:42.762Z,45.25
2018-09-19T11:00:42.804Z,45.16
2018-09-19T11:01:42.734Z,45.75
2018-09-19T11:02:42.738Z,46.13
2018-09-19T11:03:42.764Z,46.52
2018-09-19T11:04:43.469Z,46.14
2018-09-19T11:05:42.777Z,46.37
2018-09-19T11:06:42.740Z,45.76
2018-09-19T11:07:43.105Z,45.45
2018-09-19T11:08:42.797Z,44.56
2018-09-19T11:09:42.759Z,44.86
2018-09-19T11:10:42.844Z,44.86
2018-09-19T11:11:42.836Z,45.61
2018-09-19T11:12:42.749Z,45.59
2018-09-19T11:13:42.768Z,45.26
2018-09-19T11:14:42.771Z,44.64
2018-09-19T11:15:43.049Z,44.9
2018-09-19T11:16:42.781Z,44.66
2018-09-19T11:17:42.758Z,43.08
2018-09-19T11:18:42.755Z,43.65
2018-09-19T11:19:42.741Z,44.07
2018-09-19T11:20:42.772Z,43.66
2018-09-19T11:21:42.759Z,44.3
2018-09-19T11:22:42.902Z,43.22
2018-09-19T11:23:42.795Z,43.35
2018-09-19T11:24:42.773Z,42.57
2018-09-19T11:25:42.902Z,42.78
2018-09-19T11:26:42.770Z,43.22
2018-09-19T11:27:48.769Z,42.98
2018-09-19T11:28:42.786Z,42.56
2018-09-19T11:29:42.830Z,42.56
2018-09-19T11:30:42.845Z,43.43
2018-09-19T11:31:42.823Z,43.41
2018-09-19T11:32:43.110Z,43.08
2018-09-19T11:33:42.746Z,42.66
2018-09-19T11:34:42.923Z,42.15
2018-09-19T11:35:43.096Z,42.78
2018-09-19T11:36:42.770Z,42.8
2018-09-19T11:37:42.778Z,43.11
2018-09-19T11:38:43.228Z,42.35
2018-09-19T11:39:42.906Z,41.83
2018-09-19T11:40:43.019Z,41.77
2018-09-19T11:41:42.773Z,42.09
2018-09-19T11:42:43.150Z,42.28
2018-09-19T11:43:43.970Z,42.2
2018-09-19T11:44:43.033Z,42.49
2018-09-19T11:45:43.182Z,42.65
2018-09-19T11:46:43.165Z,41.62
2018-09-19T11:47:43.087Z,41.12
2018-09-19T11:48:44.040Z,41.93
2018-09-19T11:49:44.226Z,42.35
2018-09-19T11:50:43.208Z,42.1
2018-09-19T11:51:43.015Z,42.15
2018-09-19T11:52:43.020Z,42.13
2018-09-19T11:53:42.908Z,41.61
2018-09-19T11:54:43.129Z,41.5
2018-09-19T11:55:43.128Z,41.48
2018-09-19T11:56:42.937Z,41.97
2018-09-19T11:57:43.681Z,42.01
2018-09-19T11:58:44.304Z,42.61
2018-09-19T11:59:43.053Z,43.28
2018-09-19T12:00:42.968Z,42.18
2018-09-19T12:01:43.178Z,42.6
2018-09-19T12:02:42.971Z,42.24
2018-09-19T12:03:43.088Z,42.13
2018-09-19T12:04:43.400Z,42.19
2018-09-19T12:05:43.310Z,42.38
2018-09-19T12:06:43.099Z,41.77
2018-09-19T12:07:43.016Z,41.99
2018-09-19T12:08:43.124Z,41.39
2018-09-19T12:09:43.433Z,41.96
2018-09-19T12:10:43.131Z,41.16
2018-09-19T12:11:43.033Z,41.79
2018-09-19T12:12:43.154Z,42.07
2018-09-19T12:13:43.000Z,41.01
2018-09-19T12:14:42.975Z,41.19
2018-09-19T12:15:43.177Z,40.8
2018-09-19T12:16:43.018Z,40.4
2018-09-19T12:17:43.285Z,40.99
2018-09-19T12:18:43.082Z,41.31
2018-09-19T12:19:43.203Z,41.6
2018-09-19T12:20:43.045Z,41.42
2018-09-19T12:21:43.213Z,41.69
2018-09-19T12:22:42.919Z,41.07
2018-09-19T12:23:42.967Z,40.38
2018-09-19T12:24:43.230Z,40.72
2018-09-19T12:25:43.089Z,41.02
2018-09-19T12:26:42.911Z,40.63
2018-09-19T12:27:43.038Z,41.16
2018-09-19T12:28:42.882Z,40.92
2018-09-19T12:29:42.855Z,41.13
2018-09-19T12:30:43.373Z,40.55
2018-09-19T12:31:43.041Z,40.82
2018-09-19T12:32:43.270Z,41.16
2018-09-19T12:33:43.000Z,40.79
2018-09-19T12:34:43.027Z,40.58
2018-09-19T12:35:43.240Z,41.35
2018-09-19T12:36:43.000Z,40.64
2018-09-19T12:37:43.740Z,40.43
2018-09-19T12:38:42.850Z,39.77
2018-09-19T12:39:42.879Z,40
2018-09-19T12:40:42.998Z,40.16
2018-09-19T12:41:43.033Z,40.36
2018-09-19T12:42:42.939Z,41.02
2018-09-19T12:43:42.905Z,40.45
2018-09-19T12:44:43.197Z,40.39
2018-09-19T12:45:43.090Z,40.33
2018-09-19T12:46:42.987Z,39.32
2018-09-19T12:47:42.914Z,39.25
2018-09-19T12:48:44.105Z,39.19
2018-09-19T12:49:42.882Z,39.26
2018-09-19T12:50:42.992Z,39.56
2018-09-19T12:51:43.001Z,39.33
2018-09-19T12:52:42.976Z,39.58
2018-09-19T12:53:42.835Z,39.41
2018-09-19T12:54:43.132Z,38.95
2018-09-19T12:55:42.927Z,39.28
2018-09-19T12:56:43.248Z,39.24